Time;durP1;ratioP1;P1;durP2;ratioP2;P2;SDS_P1;SDS_P2;PMS_P1;PMS_P2;Temp;Humidity;BMP_temperature;BMP_pressure;BME280_temperature;BME280_humidity;BME280_pressure;Samples;Min_cycle;Max_cycle;Signal;HPM_P1;HPM_P2
2022/07/05 00:02:26;;;;;;;6.65;2.12;;;;;;;28.15;42.52;99705.78;4453440;32;33966;-81
2022/07/05 00:04:54;;;;;;;6.25;2.15;;;;;;;28.15;42.59;99702.97;4441221;32;33950;-81
2022/07/05 00:07:22;;;;;;;3.78;2.08;;;;;;;27.89;43.15;99705.69;4440906;32;33062;-82
2022/07/05 00:09:53;;;;;;;7.03;2.22;;;;;;;28.02;43.11;99712.34;4440890;32;33875;-81
2022/07/05 00:12:23;;;;;;;6.35;1.98;;;;;;;27.80;43.52;99708.44;4440943;32;33490;-81
2022/07/05 00:14:51;;;;;;;5.45;2.47;;;;;;;27.88;43.26;99702.03;4440877;32;33840;-81
2022/07/05 00:17:18;;;;;;;4.22;1.67;;;;;;;27.87;43.20;99700.38;4453667;32;34443;-80
2022/07/05 00:19:46;;;;;;;5.20;1.83;;;;;;;28.03;42.82;99691.44;4440668;32;33748;-81
2022/07/05 00:22:14;;;;;;;4.03;1.80;;;;;;;27.96;42.93;99683.44;4441013;32;33469;-82
2022/07/05 00:24:41;;;;;;;5.30;1.50;;;;;;;27.29;44.53;99675.09;4440902;32;34809;-81
2022/07/05 00:27:09;;;;;;;4.43;1.70;;;;;;;27.47;44.11;99671.22;4440822;32;33973;-81
2022/07/05 00:29:38;;;;;;;3.33;1.50;;;;;;;27.50;44.00;99666.91;4440869;32;34093;-81
2022/07/05 00:32:05;;;;;;;5.10;1.80;;;;;;;27.95;42.87;99661.22;4440551;32;31993;-82
2022/07/05 00:34:33;;;;;;;4.47;1.80;;;;;;;27.78;43.01;99657.16;4453588;32;34006;-83
2022/07/05 00:37:01;;;;;;;4.43;1.60;;;;;;;27.43;43.82;99655.25;4440626;32;34346;-81
2022/07/05 00:39:28;;;;;;;3.30;1.70;;;;;;;27.57;43.44;99650.37;4440778;32;32651;-81
2022/07/05 00:41:57;;;;;;;3.83;1.77;;;;;;;27.63;43.22;99654.75;4441056;32;33315;-81
2022/07/05 00:44:34;;;;;;;6.85;1.80;;;;;;;27.77;42.92;99655.50;4453211;32;33873;-81
2022/07/05 00:47:04;;;;;;;2.42;1.50;;;;;;;27.90;42.52;99647.28;4453557;32;34527;-80
2022/07/05 00:49:33;;;;;;;3.25;1.55;;;;;;;27.90;42.50;99650.09;4440527;32;34810;-81
2022/07/05 00:52:01;;;;;;;3.03;1.60;;;;;;;27.78;42.76;99647.88;4427790;32;31865;-81
2022/07/05 00:54:47;;;;;;;3.78;1.70;;;;;;;27.63;42.85;99654.75;4442399;32;34160;-80
2022/07/05 00:57:16;;;;;;;3.30;1.60;;;;;;;27.59;42.83;99656.56;4453334;32;34590;-80
2022/07/05 00:59:43;;;;;;;5.50;1.77;;;;;;;27.65;42.57;99660.91;4452893;32;34055;-81
2022/07/05 01:02:11;;;;;;;3.17;1.60;;;;;;;27.86;42.00;99661.19;4452402;32;33222;-81
2022/07/05 01:04:47;;;;;;;5.28;1.70;;;;;;;27.77;42.17;99663.97;4441041;32;33005;-80
2022/07/05 01:07:20;;;;;;;4.70;1.70;;;;;;;27.81;41.81;99659.34;4440414;32;34067;-81
2022/07/05 01:09:48;;;;;;;2.95;1.50;;;;;;;27.40;42.56;99656.72;4440099;32;34473;-80
2022/07/05 01:12:17;;;;;;;3.92;1.50;;;;;;;27.97;41.36;99650.44;4440376;32;33396;-82
2022/07/05 01:14:45;;;;;;;4.70;2.00;;;;;;;27.72;41.74;99649.16;4440213;32;33140;-82
2022/07/05 01:17:13;;;;;;;3.85;1.58;;;;;;;27.74;41.32;99658.13;4452927;32;34563;-81
2022/07/05 01:19:41;;;;;;;2.97;1.70;;;;;;;27.47;41.56;99650.63;4440271;32;34699;-82
2022/07/05 01:22:17;;;;;;;5.95;1.87;;;;;;;27.54;41.41;99659.47;4427465;32;32269;-82
2022/07/05 01:24:46;;;;;;;4.28;1.80;;;;;;;27.64;41.14;99650.78;4453094;32;33587;-81
2022/07/05 01:27:18;;;;;;;3.03;1.58;;;;;;;27.83;40.65;99657.03;4440418;32;32938;-81
2022/07/05 01:29:46;;;;;;;3.25;1.58;;;;;;;27.85;40.37;99642.59;4439953;32;33992;-80
2022/07/05 01:32:14;;;;;;;4.30;1.77;;;;;;;27.88;40.19;99642.78;4440035;32;33104;-82
2022/07/05 01:34:42;;;;;;;2.62;1.33;;;;;;;27.82;40.34;99646.06;4427229;32;32845;-81
2022/07/05 01:37:11;;;;;;;2.80;1.40;;;;;;;27.99;40.19;99642.47;4452654;32;35062;-81
2022/07/05 01:39:39;;;;;;;4.55;1.60;;;;;;;28.08;39.66;99649.81;4439948;32;33834;-82
2022/07/05 01:42:07;;;;;;;3.87;1.67;;;;;;;28.04;39.48;99645.97;4452726;32;33506;-81
2022/07/05 01:44:35;;;;;;;2.62;1.42;;;;;;;27.94;39.64;99640.66;4439696;32;34028;-81
2022/07/05 01:47:04;;;;;;;4.28;1.67;;;;;;;27.87;39.75;99640.28;4440144;32;35701;-81
2022/07/05 01:49:39;;;;;;;3.20;1.50;;;;;;;27.84;40.05;99647.41;4427045;32;33291;-81
2022/07/05 01:52:11;;;;;;;2.15;1.40;;;;;;;27.86;39.95;99645.09;4452470;32;33385;-81
2022/07/05 01:54:40;;;;;;;3.28;1.60;;;;;;;27.85;40.17;99632.16;4439721;32;32261;-82
2022/07/05 01:57:09;;;;;;;2.35;1.45;;;;;;;27.90;40.11;99636.81;4452351;32;34438;-81
2022/07/05 01:59:37;;;;;;;3.42;1.37;;;;;;;27.93;39.91;99643.81;4439634;32;34127;-81
2022/07/05 02:02:06;;;;;;;4.30;1.70;;;;;;;27.99;39.81;99642.47;4452017;32;33484;-81
2022/07/05 02:04:35;;;;;;;4.85;1.55;;;;;;;28.14;38.84;99644.84;4439407;32;32317;-81
2022/07/05 02:07:07;;;;;;;2.78;1.48;;;;;;;27.98;38.96;99647.28;4452245;32;34605;-80
2022/07/05 02:09:36;;;;;;;3.28;1.50;;;;;;;27.92;39.34;99647.78;4452302;32;34559;-81
2022/07/05 02:12:05;;;;;;;2.30;1.40;;;;;;;28.00;39.11;99649.78;4440196;32;32440;-80
2022/07/05 02:14:33;;;;;;;5.00;1.42;;;;;;;28.04;39.00;99650.78;4441699;32;33628;-80
2022/07/05 02:17:02;;;;;;;3.35;1.50;;;;;;;27.96;39.46;99645.94;4454704;32;33829;-81
2022/07/05 02:19:31;;;;;;;3.42;1.65;;;;;;;27.84;39.78;99644.59;4454443;32;34358;-80
2022/07/05 02:21:58;;;;;;;3.97;1.60;;;;;;;27.86;39.69;99630.16;4441926;32;34040;-81
2022/07/05 02:24:26;;;;;;;6.18;2.03;;;;;;;27.88;39.50;99623.03;4428719;32;32224;-80
2022/07/05 02:26:54;;;;;;;2.67;1.33;;;;;;;27.80;39.84;99618.19;4454501;32;34760;-80
2022/07/05 02:29:22;;;;;;;3.80;1.70;;;;;;;27.91;38.88;99618.75;4441845;32;33469;-81
2022/07/05 02:31:52;;;;;;;4.75;1.75;;;;;;;27.91;38.70;99621.56;4429103;32;31451;-82
2022/07/05 02:34:19;;;;;;;3.00;1.50;;;;;;;28.10;38.51;99619.28;4441432;32;34608;-80
2022/07/05 02:36:47;;;;;;;3.97;1.45;;;;;;;28.16;38.27;99631.25;4454289;32;34438;-81
2022/07/05 02:39:15;;;;;;;2.92;1.50;;;;;;;28.15;38.07;99635.22;4428754;32;32367;-80
2022/07/05 02:41:47;;;;;;;3.28;1.40;;;;;;;28.15;38.04;99638.06;4441483;32;32435;-82
2022/07/05 02:44:15;;;;;;;4.65;1.50;;;;;;;28.13;38.05;99634.72;4441516;32;32321;-81
2022/07/05 02:46:43;;;;;;;2.83;1.60;;;;;;;28.25;37.84;99640.63;4441657;32;33821;-82
2022/07/05 02:49:11;;;;;;;3.45;1.70;;;;;;;28.30;37.65;99636.81;4441382;32;32380;-82
2022/07/05 02:51:39;;;;;;;3.35;1.50;;;;;;;28.14;38.02;99642.03;4454434;32;33250;-81
2022/07/05 02:54:08;;;;;;;3.90;1.50;;;;;;;28.24;38.03;99647.41;4441663;32;33613;-80
2022/07/05 02:56:36;;;;;;;2.85;1.58;;;;;;;28.10;38.41;99644.69;4428765;32;33935;-82
2022/07/05 02:59:05;;;;;;;5.25;1.85;;;;;;;28.01;38.76;99629.69;4441387;32;34700;-80
2022/07/05 03:01:33;;;;;;;4.28;1.60;;;;;;;27.96;39.25;99626.19;4428649;32;33199;-81
2022/07/05 03:04:03;;;;;;;4.55;1.77;;;;;;;27.94;39.55;99617.25;4441835;32;33890;-81
2022/07/05 03:06:31;;;;;;;2.62;1.35;;;;;;;27.83;39.83;99628.81;4441208;32;32853;-81
2022/07/05 03:08:59;;;;;;;5.25;1.67;;;;;;;27.89;39.75;99640.81;4454095;32;33789;-81
2022/07/05 03:11:27;;;;;;;5.03;1.85;;;;;;;27.94;39.68;99634.19;4428529;32;31981;-81
2022/07/05 03:13:56;;;;;;;3.92;1.70;;;;;;;27.90;40.28;99621.88;4441365;32;32833;-80
2022/07/05 03:16:24;;;;;;;4.15;1.90;;;;;;;27.88;40.40;99634.31;4441204;32;34340;-81
2022/07/05 03:18:52;;;;;;;3.05;1.67;;;;;;;27.82;40.64;99632.81;4428578;32;33628;-80
2022/07/05 03:21:21;;;;;;;5.10;1.80;;;;;;;27.75;41.05;99621.16;4441523;32;33886;-80
2022/07/05 03:23:49;;;;;;;3.50;1.77;;;;;;;27.77;41.05;99620.81;4440561;32;33665;-81
2022/07/05 03:26:16;;;;;;;3.78;1.65;;;;;;;27.74;41.18;99621.47;4441386;32;34376;-81
2022/07/05 03:28:47;;;;;;;4.25;1.90;;;;;;;27.88;40.88;99637.16;4441492;32;34901;-80
2022/07/05 03:31:15;;;;;;;3.15;1.80;;;;;;;27.92;40.97;99631.69;4441483;32;33848;-81
2022/07/05 03:33:43;;;;;;;3.15;1.70;;;;;;;27.90;41.29;99647.28;4441080;32;32966;-81
2022/07/05 03:36:10;;;;;;;4.28;1.85;;;;;;;27.83;41.96;99645.75;4428252;32;34896;-82
2022/07/05 03:38:39;;;;;;;5.45;1.87;;;;;;;27.97;41.81;99656.06;4428752;32;32289;-82
2022/07/05 03:41:07;;;;;;;4.97;2.03;;;;;;;27.90;42.19;99672.66;4453880;32;34142;-81
2022/07/05 03:43:34;;;;;;;4.62;2.00;;;;;;;27.77;42.50;99671.59;4440881;32;32431;-80
2022/07/05 03:46:03;;;;;;;6.45;1.90;;;;;;;27.63;43.04;99663.22;4441049;32;33701;-80
2022/07/05 03:48:31;;;;;;;3.47;1.75;;;;;;;27.57;43.36;99661.66;4441140;32;33911;-80
2022/07/05 03:51:09;;;;;;;7.32;1.90;;;;;;;27.44;43.68;99671.00;4441984;32;31890;-80
2022/07/05 03:53:37;;;;;;;3.45;2.03;;;;;;;27.51;43.54;99677.88;4453813;32;34308;-81
2022/07/05 03:56:05;;;;;;;5.45;1.95;;;;;;;27.45;43.83;99675.50;4441137;32;34538;-81
2022/07/05 03:58:34;;;;;;;3.22;1.80;;;;;;;27.46;43.81;99680.81;4441096;32;32978;-81
2022/07/05 04:01:02;;;;;;;7.37;1.87;;;;;;;26.66;45.88;99680.75;4441114;32;33363;-80
2022/07/05 04:06:37;;;;;;;;;;;;;;;26.79;45.50;99697.63;4455375;32;35379;-80
2022/07/05 04:09:08;;;;;;;5.62;1.87;;;;;;;26.99;45.13;99707.62;4440960;32;34138;-80
2022/07/05 04:11:37;;;;;;;5.40;1.77;;;;;;;26.43;46.52;99697.59;4441164;32;32978;-81
2022/07/05 04:14:05;;;;;;;3.33;1.70;;;;;;;26.47;46.22;99697.81;4441092;32;33773;-81
2022/07/05 04:16:32;;;;;;;3.55;1.90;;;;;;;26.70;45.65;99688.25;4440991;32;34547;-82
2022/07/05 04:19:04;;;;;;;4.40;1.87;;;;;;;26.14;46.94;99688.59;4440894;32;33528;-81
2022/07/05 04:21:33;;;;;;;4.12;1.80;;;;;;;26.40;46.15;99686.97;4440774;32;32253;-80
2022/07/05 04:24:00;;;;;;;7.22;2.20;;;;;;;26.41;46.18;99688.63;4441094;32;34524;-80
2022/07/05 04:26:29;;;;;;;4.95;1.95;;;;;;;26.52;45.86;99695.72;4440794;32;34676;-80
2022/07/05 04:28:59;;;;;;;3.85;2.00;;;;;;;26.67;45.37;99686.09;4428119;32;32288;-81
2022/07/05 04:31:27;;;;;;;5.28;1.95;;;;;;;27.02;44.36;99676.03;4428305;32;32621;-81
2022/07/05 04:33:55;;;;;;;4.40;2.05;;;;;;;26.86;44.50;99680.31;4428492;32;34423;-81
2022/07/05 04:36:23;;;;;;;3.58;1.92;;;;;;;26.44;45.43;99670.28;4440653;32;34099;-81
2022/07/05 04:38:51;;;;;;;3.28;1.85;;;;;;;26.68;44.85;99661.56;4443533;32;34609;-81
2022/07/05 04:41:23;;;;;;;4.45;2.10;;;;;;;26.88;44.46;99658.28;4432066;32;31837;-82
2022/07/05 04:43:51;;;;;;;4.85;1.90;;;;;;;27.13;43.84;99663.34;4457431;32;33820;-82
2022/07/05 04:46:19;;;;;;;6.50;1.80;;;;;;;27.16;43.79;99667.53;4444728;32;35288;-81
2022/07/05 04:48:47;;;;;;;5.60;2.17;;;;;;;27.15;43.91;99671.50;4444422;32;34354;-81
2022/07/05 04:51:15;;;;;;;3.35;1.60;;;;;;;27.33;43.46;99672.44;4443371;32;34262;-81
2022/07/05 04:53:43;;;;;;;3.70;1.87;;;;;;;26.64;45.28;99667.03;4428102;32;33082;-81
2022/07/05 04:56:14;;;;;;;3.03;1.75;;;;;;;26.87;44.72;99665.06;4440421;32;34399;-81
2022/07/05 04:58:41;;;;;;;4.97;1.80;;;;;;;26.38;46.01;99663.94;4440508;32;34014;-80
2022/07/05 05:01:09;;;;;;;3.90;1.70;;;;;;;26.73;45.07;99667.09;4440364;32;31815;-81
2022/07/05 05:03:37;;;;;;;4.30;1.85;;;;;;;26.33;46.07;99663.22;4440297;32;33677;-80
2022/07/05 05:06:04;;;;;;;3.67;1.92;;;;;;;26.54;45.37;99665.28;4440410;32;34778;-81
2022/07/05 05:08:32;;;;;;;3.28;1.85;;;;;;;26.83;44.49;99658.41;4440275;32;32364;-82
2022/07/05 05:11:00;;;;;;;4.18;1.65;;;;;;;26.74;44.54;99651.88;4440128;32;32373;-81
2022/07/05 05:13:28;;;;;;;4.80;1.90;;;;;;;26.65;44.80;99643.34;4440282;32;35202;-81
2022/07/05 05:15:55;;;;;;;3.42;1.77;;;;;;;26.78;44.36;99652.91;4440114;32;33076;-82
2022/07/05 05:18:26;;;;;;;4.07;1.70;;;;;;;26.94;43.95;99653.38;4440074;32;33378;-81
2022/07/05 05:20:54;;;;;;;3.92;1.67;;;;;;;26.75;44.25;99643.09;4453099;32;33479;-82
2022/07/05 05:23:22;;;;;;;5.07;1.80;;;;;;;27.15;43.28;99649.78;4440224;32;33764;-81
2022/07/05 05:25:51;;;;;;;5.70;1.77;;;;;;;27.22;42.88;99640.88;4439930;32;34455;-81
2022/07/05 05:28:19;;;;;;;3.55;1.60;;;;;;;27.26;42.82;99649.53;4440454;32;34659;-80
2022/07/05 05:30:47;;;;;;;4.60;1.70;;;;;;;27.22;42.47;99661.44;4439977;32;33349;-81
2022/07/05 05:33:15;;;;;;;4.12;1.70;;;;;;;27.18;42.63;99654.78;4440151;32;34705;-81
2022/07/05 05:35:43;;;;;;;5.28;1.67;;;;;;;26.85;43.46;99656.94;4439895;32;32586;-81
2022/07/05 05:38:10;;;;;;;3.72;1.77;;;;;;;27.26;42.53;99661.62;4427155;32;33696;-80
2022/07/05 05:40:38;;;;;;;4.22;1.73;;;;;;;27.31;42.45;99669.09;4439943;32;32692;-81
2022/07/05 05:43:06;;;;;;;5.65;1.80;;;;;;;27.45;42.02;99665.06;4439981;32;32347;-80
2022/07/05 05:45:33;;;;;;;3.62;1.50;;;;;;;27.50;42.02;99661.28;4452563;32;34544;-81
2022/07/05 05:48:01;;;;;;;2.80;1.40;;;;;;;27.04;42.64;99670.06;4428757;32;33398;-82
2022/07/05 05:50:34;;;;;;;3.37;1.50;;;;;;;26.97;42.82;99664.03;4442042;32;31855;-81
2022/07/05 05:53:02;;;;;;;5.53;1.75;;;;;;;27.19;42.32;99678.16;4441637;32;32282;-81
2022/07/05 05:55:31;;;;;;;3.47;1.70;;;;;;;27.28;42.09;99675.41;4454448;32;34637;-82
2022/07/05 05:58:15;;;;;;;4.80;1.65;;;;;;;27.72;41.28;99689.47;4441650;32;33477;-82
2022/07/05 06:00:47;;;;;;;3.40;1.50;;;;;;;26.98;42.65;99685.41;4441689;32;31781;-76
2022/07/05 06:03:15;;;;;;;2.42;1.40;;;;;;;26.98;42.87;99697.53;4455646;32;33668;-77
2022/07/05 06:05:43;;;;;;;5.45;1.90;;;;;;;26.63;43.77;99696.34;4454258;32;34244;-77
2022/07/05 06:08:11;;;;;;;4.85;1.75;;;;;;;26.94;43.24;99702.09;4454243;32;34002;-77
2022/07/05 06:10:39;;;;;;;3.90;1.70;;;;;;;26.72;43.88;99699.22;4454555;32;33508;-76
2022/07/05 06:13:09;;;;;;;6.30;1.45;;;;;;;26.96;43.36;99688.56;4454790;32;33785;-76
2022/07/05 06:15:36;;;;;;;4.47;1.65;;;;;;;26.79;43.83;99694.00;4455707;32;34271;-77
2022/07/05 06:18:04;;;;;;;3.80;1.73;;;;;;;26.99;43.28;99693.56;4454869;32;34546;-77
2022/07/05 06:20:33;;;;;;;2.97;1.50;;;;;;;26.76;43.99;99689.81;4443218;32;31753;-76
2022/07/05 06:23:02;;;;;;;3.72;1.67;;;;;;;26.94;43.82;99692.81;4444492;32;34468;-75
2022/07/05 06:25:32;;;;;;;6.80;1.77;;;;;;;27.10;43.60;99685.69;4443032;32;35019;-77
2022/07/05 06:28:05;;;;;;;3.95;1.60;;;;;;;27.46;42.81;99688.44;4456071;32;34388;-75
2022/07/05 06:30:34;;;;;;;4.78;1.60;;;;;;;27.11;43.61;99685.38;4445070;32;33496;-75
2022/07/05 06:33:02;;;;;;;3.90;1.80;;;;;;;26.90;44.36;99678.53;4454232;32;34371;-77
2022/07/05 06:35:30;;;;;;;3.35;1.60;;;;;;;27.45;42.85;99687.59;4452771;32;34892;-77
2022/07/05 06:38:00;;;;;;;3.12;1.60;;;;;;;27.47;42.09;99698.56;4452933;32;34810;-76
2022/07/05 06:40:33;;;;;;;3.08;1.42;;;;;;;26.70;43.97;99701.50;4454006;32;33998;-76
2022/07/05 06:43:03;;;;;;;3.70;1.60;;;;;;;26.82;43.57;99693.34;4454101;32;33657;-76
2022/07/05 06:45:31;;;;;;;2.78;1.40;;;;;;;27.03;43.29;99686.13;4440660;32;33026;-76
2022/07/05 06:47:59;;;;;;;3.87;1.40;;;;;;;26.66;44.43;99686.41;4454136;32;33845;-76
2022/07/05 06:50:28;;;;;;;2.83;1.27;;;;;;;26.98;43.69;99676.97;4454178;32;33356;-77
2022/07/05 06:52:56;;;;;;;4.82;1.60;;;;;;;27.35;42.95;99678.56;4453980;32;33903;-76
2022/07/05 06:55:25;;;;;;;2.12;1.27;;;;;;;26.82;44.15;99676.47;4441354;32;33273;-76
2022/07/05 06:58:06;;;;;;;3.90;1.40;;;;;;;27.18;43.77;99670.84;4440630;32;32916;-77
2022/07/05 07:00:39;;;;;;;4.28;1.52;;;;;;;27.53;42.84;99663.44;4453895;32;34123;-77
2022/07/05 07:03:26;;;;;;;3.40;1.60;;;;;;;27.43;42.75;99678.63;4453555;32;32294;-77
2022/07/05 07:06:15;;;;;;;3.20;1.37;;;;;;;26.79;44.28;99677.09;4442934;32;32722;-77
2022/07/05 07:11:30;;;;;;;3.22;1.50;;;;;;;27.51;43.09;99682.69;4442737;32;31685;-76
2022/07/05 07:13:58;;;;;;;2.85;1.40;;;;;;;27.91;42.64;99671.50;4453752;32;34552;-80
2022/07/05 07:16:25;;;;;;;3.47;1.52;;;;;;;27.58;41.94;99683.06;4441432;32;35184;-80
2022/07/05 07:18:56;;;;;;;5.50;1.65;;;;;;;27.37;42.85;99684.72;4454287;32;34531;-79
2022/07/05 07:21:46;;;;;;;4.07;1.52;;;;;;;27.87;41.67;99680.63;4445586;32;32869;-80
2022/07/05 07:24:14;;;;;;;3.05;1.48;;;;;;;27.53;41.78;99683.19;4428781;32;33037;-79
2022/07/05 07:29:34;;;;;;;2.67;1.40;;;;;;;27.67;41.57;99678.34;4453980;32;34287;-80
2022/07/05 07:32:03;;;;;;;3.17;1.27;;;;;;;27.60;42.05;99679.94;4453874;32;34015;-82
2022/07/05 07:34:31;;;;;;;4.05;1.40;;;;;;;27.36;42.10;99680.25;4441069;32;34463;-79
2022/07/05 07:37:00;;;;;;;4.28;1.33;;;;;;;27.90;41.49;99692.41;4441060;32;35362;-79
2022/07/05 07:39:28;;;;;;;2.05;1.30;;;;;;;27.88;41.33;99690.75;4453742;32;34088;-79
2022/07/05 07:41:55;;;;;;;2.78;1.23;;;;;;;27.87;41.21;99683.44;4440900;32;32680;-79
2022/07/05 07:44:22;;;;;;;3.42;1.60;;;;;;;27.49;42.36;99688.63;4441264;32;33918;-79
2022/07/05 07:46:50;;;;;;;1.77;1.15;;;;;;;27.67;42.03;99683.16;4428631;32;34646;-80
2022/07/05 07:49:18;;;;;;;7.95;1.40;;;;;;;27.45;42.73;99689.59;4456291;32;33340;-79
2022/07/05 07:51:46;;;;;;;3.12;1.58;;;;;;;27.12;43.71;99689.88;4468442;32;34372;-79
2022/07/05 07:54:14;;;;;;;4.25;1.62;;;;;;;27.36;43.27;99680.25;4456614;32;34454;-79
2022/07/05 07:56:41;;;;;;;4.68;1.60;;;;;;;27.16;44.37;99690.88;4451857;32;35504;-79
2022/07/05 07:59:10;;;;;;;4.78;1.50;;;;;;;27.54;43.45;99673.56;4451782;32;34069;-79
2022/07/05 08:01:38;;;;;;;4.07;1.40;;;;;;;27.64;43.28;99675.31;4456007;32;31778;-80
2022/07/05 08:04:32;;;;;;;5.00;1.30;;;;;;;27.95;42.83;99678.97;4456940;32;33925;-80
2022/07/05 08:07:19;;;;;;;4.57;1.65;;;;;;;27.88;42.78;99685.09;4469797;32;35219;-80
2022/07/05 08:10:17;;;;;;;3.47;1.40;;;;;;;27.68;43.24;99679.16;4457598;32;33455;-78
2022/07/05 08:13:10;;;;;;;6.65;1.80;;;;;;;27.52;43.72;99687.16;4458127;32;33498;-79
2022/07/05 08:16:02;;;;;;;3.08;1.40;;;;;;;27.38;44.06;99683.56;4457781;32;33548;-79
2022/07/05 08:21:57;;;;;;;4.75;1.67;;;;;;;26.54;45.94;99692.59;4469134;32;33840;-79
2022/07/05 08:24:52;;;;;;;3.90;1.80;;;;;;;26.92;45.74;99704.37;4456598;32;33563;-80
2022/07/05 08:27:43;;;;;;;6.03;1.80;;;;;;;27.19;45.42;99695.87;4457779;32;34414;-80
2022/07/05 08:30:29;;;;;;;4.55;1.90;;;;;;;27.10;45.62;99694.97;4469061;32;34457;-79
2022/07/05 08:33:24;;;;;;;3.62;1.80;;;;;;;27.23;45.63;99696.09;4457917;32;33045;-80
2022/07/05 08:36:14;;;;;;;6.25;1.67;;;;;;;27.37;45.25;99696.00;4468968;32;32746;-80
2022/07/05 08:39:08;;;;;;;4.05;1.48;;;;;;;27.44;45.24;99696.37;4457819;32;33567;-79
2022/07/05 08:41:56;;;;;;;3.53;1.60;;;;;;;27.81;45.19;99706.47;4452361;32;34332;-79
2022/07/05 08:44:51;;;;;;;3.83;1.50;;;;;;;27.71;44.71;99692.62;4440288;32;32202;-79
2022/07/05 08:47:43;;;;;;;10.55;2.35;;;;;;;27.63;43.27;99708.34;4441548;32;32404;-79
2022/07/05 08:50:34;;;;;;;6.80;1.83;;;;;;;26.97;44.33;99707.12;4441425;32;34343;-80
2022/07/05 08:53:32;;;;;;;8.82;1.90;;;;;;;27.65;43.23;99700.38;4429082;32;33577;-80
2022/07/05 08:56:24;;;;;;;12.25;2.10;;;;;;;27.79;43.07;99706.78;4441413;32;32492;-80
2022/07/05 08:59:35;;;;;;;5.65;1.85;;;;;;;27.08;44.49;99716.16;4453517;32;33166;-80
2022/07/05 09:02:29;;;;;;;6.22;1.58;;;;;;;26.87;45.17;99713.78;4453058;32;33585;-79
2022/07/05 09:05:19;;;;;;;16.83;2.90;;;;;;;27.33;45.02;99711.87;4441205;32;34636;-79
2022/07/05 09:08:15;;;;;;;5.85;2.17;;;;;;;26.83;46.47;99717.56;4453328;32;34766;-79
2022/07/05 09:11:00;;;;;;;4.07;2.00;;;;;;;27.07;45.97;99711.69;4440883;32;31928;-80
2022/07/05 09:13:45;;;;;;;;;;;;;;;26.97;46.83;99711.94;4441510;32;32666;-79
2022/07/05 09:17:01;;;;;;;6.53;2.25;;;;;;;27.11;46.84;99707.91;4443785;32;35500;-79
2022/07/05 09:19:48;;;;;;;6.62;2.28;;;;;;;26.89;47.31;99710.66;4452966;32;34071;-80
2022/07/05 09:22:47;;;;;;;5.72;2.00;;;;;;;26.60;47.61;99707.41;4452327;32;33224;-79
2022/07/05 09:25:46;;;;;;;5.30;2.10;;;;;;;26.89;47.64;99702.22;4453333;32;33569;-80
2022/07/05 09:28:35;;;;;;;;;;;;;;;27.04;46.68;99699.06;4454804;32;33310;-80
2022/07/05 09:31:39;;;;;;;4.35;1.90;;;;;;;26.73;47.68;99709.31;4454096;32;32336;-80
2022/07/05 09:34:31;;;;;;;6.32;1.98;;;;;;;26.98;47.80;99717.25;4440802;32;32886;-80
2022/07/05 09:37:22;;;;;;;5.45;2.03;;;;;;;27.12;47.20;99709.59;4441150;32;34458;-79
2022/07/05 09:40:16;;;;;;;5.40;2.10;;;;;;;26.52;48.69;99706.97;4452957;32;34215;-79
2022/07/05 09:43:41;;;;;;;6.95;2.03;;;;;;;26.80;48.64;99702.13;4452373;32;32594;-79
2022/07/05 09:46:40;;;;;;;7.37;1.92;;;;;;;26.47;48.84;99697.81;4420098;32;32322;-79
2022/07/05 09:49:39;;;;;;;7.25;2.15;;;;;;;26.56;49.09;99715.62;4464561;32;33733;-79
2022/07/05 09:52:51;;;;;;;16.33;2.80;;;;;;;26.00;49.76;99733.59;4453672;32;34615;-79
2022/07/05 09:55:44;;;;;;;11.57;3.75;;;;;;;26.31;51.37;99750.75;4452256;32;34041;-79
2022/07/05 09:58:36;;;;;;;21.35;4.68;;;;;;;26.38;52.14;99755.97;4451996;32;31681;-78
2022/07/05 10:01:36;;;;;;;18.62;3.35;;;;;;;25.90;56.52;99756.31;4452496;32;34711;-79
2022/07/05 10:04:28;;;;;;;5.97;2.55;;;;;;;25.26;59.47;99763.53;4452186;32;34225;-78
2022/07/05 10:07:18;;;;;;;9.40;2.65;;;;;;;24.56;60.27;99781.03;4451979;32;32439;-79
2022/07/05 10:10:11;;;;;;;8.15;2.95;;;;;;;25.13;59.38;99790.41;4440488;32;31995;-79
2022/07/05 10:13:16;;;;;;;7.00;2.78;;;;;;;24.66;61.15;99787.66;4427515;32;33410;-80
2022/07/05 10:16:15;;;;;;;7.80;2.75;;;;;;;24.45;61.34;99785.09;4440671;32;35199;-78
2022/07/05 10:19:05;;;;;;;7.40;2.70;;;;;;;24.16;63.07;99776.69;4464521;32;34414;-78
2022/07/05 10:21:54;;;;;;;6.72;2.50;;;;;;;24.33;63.47;99793.09;4451954;32;33366;-79
2022/07/05 10:25:10;;;;;;;7.57;3.15;;;;;;;24.24;62.95;99789.22;4452264;32;33835;-79
2022/07/05 10:28:12;;;;;;;7.05;2.58;;;;;;;24.36;63.00;99798.09;4440771;32;34115;-78
2022/07/05 10:31:08;;;;;;;9.95;2.75;;;;;;;24.31;63.03;99803.75;4451709;32;33028;-78
2022/07/05 10:34:07;;;;;;;12.73;2.70;;;;;;;23.70;63.59;99795.06;4453148;32;31907;-78
2022/07/05 10:37:21;;;;;;;5.12;2.70;;;;;;;23.81;63.94;99791.91;4454731;32;34532;-78
2022/07/05 10:40:15;;;;;;;6.87;2.97;;;;;;;23.57;64.68;99803.03;4454205;32;34453;-78
2022/07/05 10:43:10;;;;;;;14.52;3.67;;;;;;;23.70;64.86;99801.53;4442036;32;33357;-79
2022/07/05 10:46:06;;;;;;;10.85;4.40;;;;;;;23.58;65.16;99806.66;4441033;32;32628;-78
2022/07/05 10:48:54;;;;;;;9.00;3.12;;;;;;;23.73;65.40;99809.34;4453902;32;34555;-78
2022/07/05 10:51:43;;;;;;;17.92;3.90;;;;;;;23.52;66.02;99807.78;4455453;32;33701;-79
2022/07/05 10:54:40;;;;;;;7.32;3.33;;;;;;;23.73;65.51;99805.72;4454236;32;33956;-79
2022/07/05 10:57:38;;;;;;;7.50;3.40;;;;;;;23.26;67.22;99808.00;4441509;32;31756;-79
2022/07/05 11:00:35;;;;;;;8.73;3.40;;;;;;;23.54;66.50;99817.63;4441852;32;33330;-80
2022/07/05 11:03:44;;;;;;;5.97;3.40;;;;;;;23.45;66.83;99824.94;4454271;32;34361;-80
2022/07/05 11:06:49;;;;;;;6.37;3.47;;;;;;;24.02;64.73;99833.78;4452018;32;34891;-81
2022/07/05 11:09:38;;;;;;;7.00;3.60;;;;;;;24.03;65.58;99827.03;4442471;32;34147;-79
2022/07/05 11:12:25;;;;;;;6.18;3.60;;;;;;;24.21;63.83;99829.06;4453908;32;33785;-80
2022/07/05 11:15:59;;;;;;;6.85;3.30;;;;;;;24.01;64.55;99832.09;4467546;32;34320;-78
2022/07/05 11:18:44;;;;;;;9.05;3.78;;;;;;;24.25;63.83;99838.56;4456486;32;34141;-79
2022/07/05 11:21:41;;;;;;;7.20;3.47;;;;;;;23.79;65.34;99835.38;4441641;32;33296;-79
2022/07/05 11:24:50;;;;;;;7.05;3.60;;;;;;;23.86;65.14;99833.91;4441449;32;32455;-79
2022/07/05 11:27:37;;;;;;;8.05;4.37;;;;;;;24.18;66.27;99826.88;4454068;32;35115;-79
2022/07/05 11:30:38;;;;;;;5.87;3.35;;;;;;;24.07;65.03;99806.50;4453845;32;34034;-79
2022/07/05 11:33:37;;;;;;;5.70;3.10;;;;;;;23.87;64.72;99790.72;4442054;32;33301;-79
2022/07/05 11:36:40;;;;;;;5.75;3.03;;;;;;;24.25;63.84;99786.16;4429345;32;33276;-79
2022/07/05 11:39:26;;;;;;;;;;;;;;;24.34;64.01;99786.34;4441447;32;32992;-79
2022/07/05 11:42:24;;;;;;;4.75;2.67;;;;;;;24.35;63.71;99785.22;4454730;32;34079;-79
2022/07/05 11:45:25;;;;;;;7.82;3.12;;;;;;;24.41;63.85;99783.19;4441002;32;31736;-79
2022/07/05 11:48:20;;;;;;;7.40;3.63;;;;;;;24.55;63.03;99792.56;4331293;32;3195976;-79
2022/07/05 11:51:23;;;;;;;5.62;3.28;;;;;;;24.44;63.33;99802.22;4440420;32;33095;-79
2022/07/05 11:54:18;;;;;;;6.62;3.00;;;;;;;24.29;64.35;99803.22;4442163;32;32917;-78
2022/07/05 11:57:04;;;;;;;6.47;2.80;;;;;;;24.14;64.64;99786.53;4440501;32;31564;-78
2022/07/05 12:00:01;;;;;;;6.90;3.40;;;;;;;24.52;63.33;99771.53;4442284;32;34529;-79
2022/07/05 12:03:04;;;;;;;6.15;3.00;;;;;;;24.58;63.47;99770.34;4442912;32;34372;-79
2022/07/05 12:06:15;;;;;;;8.20;3.12;;;;;;;23.92;65.06;99770.22;4443045;32;33908;-80
2022/07/05 12:09:28;;;;;;;6.78;3.40;;;;;;;23.84;65.43;99773.66;4442224;32;33980;-79
2022/07/05 12:15:54;;;;;;;8.95;3.78;;;;;;;23.90;66.67;99764.91;4431890;32;34071;-79
2022/07/05 12:19:20;;;;;;;8.00;4.00;;;;;;;24.04;66.45;99770.66;4467978;32;34821;-78
2022/07/05 12:22:15;;;;;;;6.70;3.42;;;;;;;24.35;65.76;99759.97;4451404;32;33162;-79
2022/07/05 12:25:09;;;;;;;5.75;4.07;;;;;;;24.57;65.04;99762.22;4452281;32;33609;-80
2022/07/05 12:28:03;;;;;;;5.62;3.30;;;;;;;24.17;65.58;99771.91;4454206;32;33033;-80
2022/07/05 12:30:51;;;;;;;9.98;4.53;;;;;;;24.41;64.53;99770.00;4468929;32;34841;-78
2022/07/05 12:33:37;;;;;;;7.72;5.43;;;;;;;24.34;65.33;99774.28;4456929;32;32950;-80
2022/07/05 12:36:32;;;;;;;8.23;4.05;;;;;;;24.29;65.08;99776.00;4444732;32;33603;-79
2022/07/05 12:39:26;;;;;;;7.70;4.25;;;;;;;24.43;65.04;99773.34;4457274;32;34311;-76
2022/07/05 12:42:32;;;;;;;6.55;4.43;;;;;;;24.28;66.10;99781.91;4468859;32;34695;-76